Time;durP1;ratioP1;P1;durP2;ratioP2;P2;SDS_P1;SDS_P2;PMS_P1;PMS_P2;Temp;Humidity;BMP_temperature;BMP_pressure;BME280_temperature;BME280_humidity;BME280_pressure;Samples;Min_cycle;Max_cycle;Signal;HPM_P1;HPM_P2
2022/10/15 00:00:04;;;;;;;9.98;5.82;;;;;;;;;;5077539;28;20032;-74
2022/10/15 00:02:30;;;;;;;12.13;5.90;;;;;;;;;;5110232;28;20060;-74
2022/10/15 00:04:57;;;;;;;11.45;5.50;;;;;;;;;;5091316;28;20505;-74
2022/10/15 00:07:23;;;;;;;7.93;5.05;;;;;;;;;;5091914;28;20035;-75
2022/10/15 00:09:49;;;;;;;11.02;5.13;;;;;;;;;;5058350;28;20032;-73
2022/10/15 00:12:14;;;;;;;9.30;5.95;;;;;;;;;;5108281;28;20042;-74
2022/10/15 00:14:40;;;;;;;9.27;5.22;;;;;;;;;;5075945;28;20131;-76
2022/10/15 00:17:06;;;;;;;19.05;5.50;;;;;;;;;;5095259;28;20036;-75
2022/10/15 00:19:31;;;;;;;10.10;5.20;;;;;;;;;;5078074;28;20118;-75
2022/10/15 00:21:57;;;;;;;10.50;5.38;;;;;;;;;;5110641;28;20070;-75
2022/10/15 00:24:22;;;;;;;9.30;5.28;;;;;;;;;;5059266;28;20039;-75
2022/10/15 00:26:48;;;;;;;12.05;5.60;;;;;;;;;;5092237;28;20046;-74
2022/10/15 00:29:14;;;;;;;10.38;5.50;;;;;;;;;;5093455;28;20385;-74
2022/10/15 00:31:39;;;;;;;10.15;5.43;;;;;;;;;;5093073;28;20053;-76
2022/10/15 00:34:05;;;;;;;8.70;5.53;;;;;;;;;;5109940;28;20066;-74
2022/10/15 00:36:32;;;;;;;10.38;5.03;;;;;;;;;;5109687;28;20456;-75
2022/10/15 00:38:58;;;;;;;10.02;5.30;;;;;;;;;;5075619;28;20078;-74
2022/10/15 00:41:27;;;;;;;9.60;5.45;;;;;;;;;;5091527;28;20032;-74
2022/10/15 00:43:54;;;;;;;8.43;4.85;;;;;;;;;;5091506;28;20048;-76
2022/10/15 00:46:23;;;;;;;11.18;5.68;;;;;;;;;;5092857;28;20458;-75
2022/10/15 00:48:54;;;;;;;10.98;5.22;;;;;;;;;;5075258;28;20043;-76
2022/10/15 00:51:21;;;;;;;12.75;5.13;;;;;;;;;;5091818;28;20359;-76
2022/10/15 00:53:47;;;;;;;11.90;5.47;;;;;;;;;;5091832;28;20039;-75
2022/10/15 00:56:14;;;;;;;7.82;5.28;;;;;;;;;;5075754;28;20040;-76
2022/10/15 00:58:40;;;;;;;12.15;5.68;;;;;;;;;;5108170;28;20032;-76
2022/10/15 01:01:06;;;;;;;10.50;5.40;;;;;;;;;;5059111;28;20416;-76
2022/10/15 01:03:34;;;;;;;8.85;4.85;;;;;;;;;;5108563;28;20058;-75
2022/10/15 01:06:00;;;;;;;9.07;4.72;;;;;;;;;;5108451;28;20027;-75
2022/10/15 01:08:26;;;;;;;12.23;5.30;;;;;;;;;;5108616;28;20038;-76
2022/10/15 01:11:10;;;;;;;10.80;5.22;;;;;;;;;;5109123;28;20042;-76
2022/10/15 01:13:55;;;;;;;9.95;5.30;;;;;;;;;;5076020;28;20047;-76
2022/10/15 01:16:27;;;;;;;12.70;5.63;;;;;;;;;;5109928;28;20047;-77
2022/10/15 01:18:58;;;;;;;10.18;5.20;;;;;;;;;;5074414;28;20448;-75
2022/10/15 01:21:32;;;;;;;11.18;5.55;;;;;;;;;;5092372;28;20327;-75
2022/10/15 01:24:13;;;;;;;10.85;4.78;;;;;;;;;;5074388;28;20032;-75
2022/10/15 01:26:48;;;;;;;7.32;4.65;;;;;;;;;;5074731;28;20054;-75
2022/10/15 01:29:32;;;;;;;11.60;4.60;;;;;;;;;;5074893;28;20028;-75
2022/10/15 01:31:58;;;;;;;10.65;5.00;;;;;;;;;;5075077;28;20044;-75
2022/10/15 01:34:35;;;;;;;7.50;4.60;;;;;;;;;;5074795;28;20040;-75
2022/10/15 01:37:08;;;;;;;7.97;4.88;;;;;;;;;;5074949;28;20127;-75
2022/10/15 01:39:43;;;;;;;7.32;4.95;;;;;;;;;;5108955;28;20537;-75
2022/10/15 01:42:15;;;;;;;10.27;4.68;;;;;;;;;;5058365;28;20340;-76
2022/10/15 01:44:43;;;;;;;6.95;4.63;;;;;;;;;;5091584;28;20028;-76
2022/10/15 01:47:30;;;;;;;9.07;4.70;;;;;;;;;;5088609;28;20386;-75
2022/10/15 01:49:59;;;;;;;9.68;4.50;;;;;;;;;;5057763;28;20024;-76
2022/10/15 01:52:26;;;;;;;9.70;5.05;;;;;;;;;;5091911;28;20044;-75
2022/10/15 01:54:55;;;;;;;9.85;4.88;;;;;;;;;;5058657;28;20039;-75
2022/10/15 01:57:22;;;;;;;8.57;4.53;;;;;;;;;;5091031;28;20135;-76
2022/10/15 01:59:51;;;;;;;8.32;3.97;;;;;;;;;;5058215;28;20040;-75
2022/10/15 02:02:17;;;;;;;7.32;4.20;;;;;;;;;;5092334;28;20344;-75
2022/10/15 02:04:43;;;;;;;7.28;4.15;;;;;;;;;;5076221;28;20028;-76
2022/10/15 02:07:14;;;;;;;8.68;4.20;;;;;;;;;;5093809;28;20131;-75
2022/10/15 02:09:40;;;;;;;;;;;;;;;;;;5094682;28;20074;-76
2022/10/15 02:12:09;;;;;;;8.85;3.80;;;;;;;;;;5098814;28;19912;-76
2022/10/15 02:14:56;;;;;;;4.90;3.53;;;;;;;;;;5098080;28;20044;-77
2022/10/15 02:17:28;;;;;;;11.20;4.63;;;;;;;;;;5080779;28;20090;-76
2022/10/15 02:20:04;;;;;;;8.93;4.68;;;;;;;;;;5096144;28;20052;-76
2022/10/15 02:22:42;;;;;;;10.88;5.15;;;;;;;;;;5094624;28;20027;-78
2022/10/15 02:25:17;;;;;;;9.35;4.88;;;;;;;;;;5095770;28;20132;-78
2022/10/15 02:27:50;;;;;;;10.95;4.80;;;;;;;;;;5093725;28;20378;-78
2022/10/15 02:30:16;;;;;;;9.93;4.93;;;;;;;;;;5094422;28;20039;-81
2022/10/15 02:32:44;;;;;;;10.02;4.60;;;;;;;;;;5078381;28;20385;-77
2022/10/15 02:35:10;;;;;;;10.73;5.32;;;;;;;;;;5094119;28;20089;-77
2022/10/15 02:37:42;;;;;;;8.43;4.90;;;;;;;;;;5061033;28;20036;-75
2022/10/15 02:40:08;;;;;;;11.02;4.47;;;;;;;;;;5093644;28;20032;-75
2022/10/15 02:42:34;;;;;;;9.40;4.22;;;;;;;;;;5110395;28;20490;-75
2022/10/15 02:44:59;;;;;;;7.32;4.65;;;;;;;;;;5076798;28;20031;-75
2022/10/15 02:47:25;;;;;;;5.70;4.00;;;;;;;;;;5076522;28;20035;-75
2022/10/15 02:49:55;;;;;;;7.18;4.55;;;;;;;;;;5094034;28;20047;-75
2022/10/15 02:52:20;;;;;;;7.85;4.03;;;;;;;;;;5094206;28;20032;-75
2022/10/15 02:54:46;;;;;;;8.65;4.43;;;;;;;;;;5060252;28;20047;-75
2022/10/15 02:57:11;;;;;;;8.85;4.30;;;;;;;;;;5059617;28;20452;-74
2022/10/15 02:59:41;;;;;;;11.43;4.57;;;;;;;;;;5076961;28;20027;-74
2022/10/15 03:02:07;;;;;;;9.68;4.38;;;;;;;;;;5110101;28;20028;-77
2022/10/15 03:04:32;;;;;;;5.68;4.03;;;;;;;;;;5076485;28;20146;-76
2022/10/15 03:06:58;;;;;;;10.82;5.68;;;;;;;;;;5093052;28;20040;-76
2022/10/15 03:09:24;;;;;;;7.88;4.50;;;;;;;;;;5076879;28;20067;-76
2022/10/15 03:11:50;;;;;;;6.93;4.25;;;;;;;;;;5093291;28;20032;-74
2022/10/15 03:14:17;;;;;;;8.50;4.20;;;;;;;;;;5060603;28;20036;-76
2022/10/15 03:16:42;;;;;;;9.60;4.65;;;;;;;;;;5110146;28;20047;-80
2022/10/15 03:19:10;;;;;;;14.45;4.90;;;;;;;;;;5093787;28;20394;-77
2022/10/15 03:21:37;;;;;;;7.75;4.45;;;;;;;;;;5090641;28;20039;-80
2022/10/15 03:24:08;;;;;;;10.23;4.90;;;;;;;;;;5072272;28;20032;-77
2022/10/15 03:26:34;;;;;;;9.95;4.20;;;;;;;;;;5072448;28;20035;-77
2022/10/15 03:29:00;;;;;;;9.35;4.18;;;;;;;;;;5073974;28;20047;-80
2022/10/15 03:31:51;;;;;;;7.00;3.90;;;;;;;;;;5072788;28;20067;-79
2022/10/15 03:34:17;;;;;;;6.03;4.15;;;;;;;;;;5057819;28;20044;-76
2022/10/15 03:36:44;;;;;;;7.75;4.80;;;;;;;;;;5074671;28;20481;-78
2022/10/15 03:39:11;;;;;;;11.52;4.40;;;;;;;;;;5075367;28;20064;-77
2022/10/15 03:41:37;;;;;;;8.93;4.53;;;;;;;;;;5089457;28;20103;-75
2022/10/15 03:44:04;;;;;;;9.52;4.55;;;;;;;;;;5073575;28;20064;-75
2022/10/15 03:46:31;;;;;;;9.73;4.35;;;;;;;;;;5040196;28;20029;-75
2022/10/15 03:48:58;;;;;;;8.55;4.72;;;;;;;;;;5073342;28;20056;-75
2022/10/15 03:51:24;;;;;;;10.93;4.63;;;;;;;;;;5074408;28;20067;-78
2022/10/15 03:53:53;;;;;;;13.82;5.57;;;;;;;;;;5055843;28;20036;-78
2022/10/15 03:56:19;;;;;;;8.88;4.25;;;;;;;;;;5056351;28;20040;-77
2022/10/15 03:58:45;;;;;;;12.18;4.38;;;;;;;;;;5072563;28;20040;-78
2022/10/15 04:01:14;;;;;;;9.20;4.57;;;;;;;;;;5057702;28;20032;-78
2022/10/15 04:03:41;;;;;;;7.18;4.57;;;;;;;;;;5090299;28;20059;-77
2022/10/15 04:06:08;;;;;;;6.53;4.10;;;;;;;;;;5091276;28;20080;-78
2022/10/15 04:08:34;;;;;;;12.35;4.53;;;;;;;;;;5063122;28;20352;-81
2022/10/15 04:11:13;;;;;;;9.23;4.60;;;;;;;;;;5063035;28;20028;-79
2022/10/15 04:13:38;;;;;;;7.65;4.50;;;;;;;;;;5039027;28;20489;-78
2022/10/15 04:16:04;;;;;;;10.10;4.45;;;;;;;;;;5038645;28;20047;-78
2022/10/15 04:18:30;;;;;;;11.50;4.32;;;;;;;;;;5055457;28;20044;-78
2022/10/15 04:20:58;;;;;;;7.55;4.20;;;;;;;;;;5055251;28;20036;-78
2022/10/15 04:23:23;;;;;;;11.93;3.95;;;;;;;;;;5071516;28;20044;-81
2022/10/15 04:26:15;;;;;;;10.65;3.80;;;;;;;;;;5055305;28;20044;-77
2022/10/15 04:28:41;;;;;;;8.60;4.53;;;;;;;;;;5071347;28;20032;-77
2022/10/15 04:31:07;;;;;;;7.13;3.90;;;;;;;;;;5054881;28;20041;-77
2022/10/15 04:33:33;;;;;;;7.15;3.80;;;;;;;;;;5054820;28;20028;-76
2022/10/15 04:36:05;;;;;;;5.43;3.65;;;;;;;;;;5071783;28;20063;-78
2022/10/15 04:39:12;;;;;;;6.75;3.88;;;;;;;;;;5073123;28;20071;-77
2022/10/15 04:41:40;;;;;;;7.82;4.30;;;;;;;;;;5055366;28;20051;-77
2022/10/15 04:44:10;;;;;;;8.30;3.97;;;;;;;;;;5071367;28;20071;-79
2022/10/15 04:46:37;;;;;;;7.43;3.72;;;;;;;;;;5071293;28;20029;-79
2022/10/15 04:49:31;;;;;;;7.28;3.63;;;;;;;;;;5018531;28;20045;-78
2022/10/15 04:51:57;;;;;;;5.95;3.25;;;;;;;;;;5055863;28;20389;-78
2022/10/15 04:54:28;;;;;;;5.53;3.03;;;;;;;;;;5089616;28;20052;-77
2022/10/15 04:57:04;;;;;;;8.07;3.40;;;;;;;;;;5071319;28;20394;-77
2022/10/15 04:59:30;;;;;;;7.03;3.67;;;;;;;;;;5070874;28;20043;-78
2022/10/15 05:02:16;;;;;;;6.45;3.33;;;;;;;;;;5070185;28;20040;-77
2022/10/15 05:04:46;;;;;;;6.70;3.10;;;;;;;;;;5038266;28;20040;-76
2022/10/15 05:07:14;;;;;;;4.68;3.13;;;;;;;;;;5071828;28;20681;-77
2022/10/15 05:09:42;;;;;;;12.00;3.83;;;;;;;;;;5037714;28;20097;-76
2022/10/15 05:12:09;;;;;;;5.60;3.95;;;;;;;;;;5071485;28;20047;-78
2022/10/15 05:14:35;;;;;;;14.77;5.20;;;;;;;;;;5053805;28;20044;-78
2022/10/15 05:17:07;;;;;;;10.27;4.50;;;;;;;;;;5055088;28;20092;-78
2022/10/15 05:19:38;;;;;;;13.52;4.40;;;;;;;;;;5075260;28;20462;-76
2022/10/15 05:22:04;;;;;;;7.05;4.30;;;;;;;;;;5075128;28;20036;-77
2022/10/15 05:24:31;;;;;;;5.00;3.67;;;;;;;;;;5057544;28;20036;-78
2022/10/15 05:27:03;;;;;;;6.60;3.22;;;;;;;;;;5073350;28;20123;-75
2022/10/15 05:29:32;;;;;;;5.78;3.40;;;;;;;;;;5072203;28;20509;-75
2022/10/15 05:31:58;;;;;;;8.43;3.65;;;;;;;;;;5037602;28;20029;-76
2022/10/15 05:34:29;;;;;;;9.80;3.83;;;;;;;;;;5087399;28;20037;-75
2022/10/15 05:37:05;;;;;;;8.45;3.75;;;;;;;;;;5055886;28;20106;-79
2022/10/15 05:39:31;;;;;;;11.88;3.97;;;;;;;;;;5071195;28;20417;-77
2022/10/15 05:41:58;;;;;;;10.57;5.05;;;;;;;;;;5054143;28;20036;-78
2022/10/15 05:44:45;;;;;;;9.45;3.70;;;;;;;;;;5087890;28;20036;-78
2022/10/15 05:47:12;;;;;;;12.35;4.80;;;;;;;;;;5044606;28;20028;-82
2022/10/15 05:49:39;;;;;;;10.15;4.65;;;;;;;;;;5076163;28;20052;-76
2022/10/15 05:52:16;;;;;;;8.57;4.00;;;;;;;;;;5075002;28;20378;-79
2022/10/15 05:55:01;;;;;;;7.78;4.05;;;;;;;;;;5089072;28;20110;-77
2022/10/15 05:57:29;;;;;;;7.72;3.78;;;;;;;;;;5090949;28;20052;-78
2022/10/15 05:59:54;;;;;;;5.85;3.70;;;;;;;;;;5057859;28;20093;-80
2022/10/15 06:02:20;;;;;;;8.00;3.92;;;;;;;;;;5074498;28;20375;-77
2022/10/15 06:04:46;;;;;;;8.93;3.85;;;;;;;;;;5057723;28;20514;-73
2022/10/15 06:07:11;;;;;;;7.75;3.92;;;;;;;;;;5090317;28;20086;-71
2022/10/15 06:09:37;;;;;;;7.90;4.10;;;;;;;;;;5040626;28;20059;-69
2022/10/15 06:12:03;;;;;;;9.45;4.18;;;;;;;;;;5074053;28;20029;-70
2022/10/15 06:14:29;;;;;;;8.65;3.50;;;;;;;;;;5074268;28;20102;-75
2022/10/15 06:16:54;;;;;;;7.10;3.83;;;;;;;;;;5091893;28;20037;-70
2022/10/15 06:19:20;;;;;;;7.70;4.10;;;;;;;;;;5058353;28;20036;-71
2022/10/15 06:21:46;;;;;;;9.15;4.13;;;;;;;;;;5057912;28;20055;-73
2022/10/15 06:24:13;;;;;;;10.32;4.22;;;;;;;;;;5041899;28;20033;-72
2022/10/15 06:26:38;;;;;;;9.30;4.13;;;;;;;;;;5072637;28;20463;-72
2022/10/15 06:29:04;;;;;;;6.75;4.00;;;;;;;;;;5056968;28;20039;-70
2022/10/15 06:31:30;;;;;;;9.07;4.05;;;;;;;;;;5055919;28;20032;-73
2022/10/15 06:33:56;;;;;;;12.20;4.43;;;;;;;;;;5041829;28;20451;-70
2022/10/15 06:36:23;;;;;;;7.10;3.90;;;;;;;;;;5074597;28;20048;-70
2022/10/15 06:38:48;;;;;;;7.53;3.85;;;;;;;;;;5057251;28;20095;-73
2022/10/15 06:41:15;;;;;;;11.75;4.90;;;;;;;;;;5067660;28;20040;-70
2022/10/15 06:43:41;;;;;;;8.10;3.92;;;;;;;;;;5067405;28;20124;-72
2022/10/15 06:46:53;;;;;;;8.27;4.00;;;;;;;;;;5071381;28;20530;-72
2022/10/15 06:49:20;;;;;;;11.45;4.03;;;;;;;;;;5085387;28;20479;-70
2022/10/15 06:51:46;;;;;;;9.73;3.88;;;;;;;;;;5064518;28;20120;-69
2022/10/15 06:54:12;;;;;;;12.48;4.57;;;;;;;;;;5067050;28;20024;-70
2022/10/15 06:56:37;;;;;;;10.80;4.00;;;;;;;;;;5047917;28;20553;-70
2022/10/15 06:59:04;;;;;;;11.52;4.50;;;;;;;;;;5049699;28;20023;-72
2022/10/15 07:01:30;;;;;;;14.63;4.70;;;;;;;;;;5061716;28;20461;-72
2022/10/15 07:03:55;;;;;;;9.80;4.55;;;;;;;;;;5042383;28;20123;-74
2022/10/15 07:06:22;;;;;;;10.63;4.97;;;;;;;;;;5040010;28;20044;-70
2022/10/15 07:08:48;;;;;;;11.10;4.88;;;;;;;;;;5057451;28;20131;-71
2022/10/15 07:11:15;;;;;;;12.95;4.85;;;;;;;;;;5040106;28;20545;-73
2022/10/15 07:13:45;;;;;;;14.73;4.60;;;;;;;;;;5040894;28;20083;-72
2022/10/15 07:16:12;;;;;;;17.45;5.32;;;;;;;;;;5039785;28;20120;-70
2022/10/15 07:18:37;;;;;;;12.35;5.30;;;;;;;;;;5039681;28;20037;-72
2022/10/15 07:21:04;;;;;;;12.70;5.70;;;;;;;;;;5039204;28;20101;-72
2022/10/15 07:23:30;;;;;;;13.07;5.80;;;;;;;;;;5039686;28;20131;-71
2022/10/15 07:25:56;;;;;;;23.35;5.55;;;;;;;;;;5056154;28;20040;-71
2022/10/15 07:28:22;;;;;;;16.73;5.57;;;;;;;;;;5072704;28;20375;-74
2022/10/15 07:30:48;;;;;;;17.23;5.13;;;;;;;;;;5056957;28;20044;-70
2022/10/15 07:33:13;;;;;;;10.93;5.05;;;;;;;;;;5039493;28;20028;-71
2022/10/15 07:35:49;;;;;;;14.02;4.38;;;;;;;;;;5040838;28;20108;-71
2022/10/15 07:38:16;;;;;;;15.93;5.63;;;;;;;;;;5055776;28;20036;-71
2022/10/15 07:40:43;;;;;;;6.97;4.13;;;;;;;;;;5039308;28;20037;-71
2022/10/15 07:43:12;;;;;;;10.57;4.50;;;;;;;;;;5039008;28;20399;-71
2022/10/15 07:45:39;;;;;;;9.70;4.93;;;;;;;;;;5056271;28;20036;-71
2022/10/15 07:48:08;;;;;;;8.32;4.25;;;;;;;;;;5038826;28;20339;-71
2022/10/15 07:50:34;;;;;;;9.10;4.32;;;;;;;;;;5055380;28;20103;-74
2022/10/15 07:53:00;;;;;;;8.13;3.90;;;;;;;;;;5055991;28;20439;-74
2022/10/15 07:55:28;;;;;;;9.02;4.30;;;;;;;;;;5039309;28;20054;-73
2022/10/15 07:57:57;;;;;;;7.50;3.60;;;;;;;;;;5039334;28;20445;-76
2022/10/15 08:00:26;;;;;;;8.93;4.50;;;;;;;;;;5039663;28;20036;-73
2022/10/15 08:02:55;;;;;;;9.23;4.32;;;;;;;;;;5039159;28;20032;-71
2022/10/15 08:05:27;;;;;;;9.80;4.43;;;;;;;;;;5056810;28;20047;-73
2022/10/15 08:08:14;;;;;;;11.13;4.32;;;;;;;;;;5038705;28;20159;-73
2022/10/15 08:10:49;;;;;;;14.13;4.50;;;;;;;;;;5072221;28;20036;-72
2022/10/15 08:13:18;;;;;;;16.65;6.22;;;;;;;;;;5055879;28;20032;-73
2022/10/15 08:15:48;;;;;;;13.52;5.25;;;;;;;;;;5038690;28;20110;-72
2022/10/15 08:18:13;;;;;;;20.98;5.30;;;;;;;;;;5038489;28;20028;-72
2022/10/15 08:20:42;;;;;;;17.17;6.35;;;;;;;;;;5038870;28;20517;-73
2022/10/15 08:23:15;;;;;;;12.68;5.50;;;;;;;;;;5055517;28;20074;-72
2022/10/15 08:25:42;;;;;;;14.30;5.63;;;;;;;;;;5055136;28;20042;-71
2022/10/15 08:28:11;;;;;;;17.27;6.20;;;;;;;;;;5071882;28;20041;-71
2022/10/15 08:30:37;;;;;;;13.35;5.53;;;;;;;;;;5064809;28;20084;-71
2022/10/15 08:33:09;;;;;;;18.05;5.70;;;;;;;;;;5093426;28;20028;-71
2022/10/15 08:35:37;;;;;;;16.85;5.75;;;;;;;;;;5089208;28;20044;-70
2022/10/15 08:38:04;;;;;;;19.50;6.32;;;;;;;;;;5055538;28;20036;-70
2022/10/15 08:40:31;;;;;;;16.92;6.28;;;;;;;;;;5090160;28;20031;-71
2022/10/15 08:42:59;;;;;;;17.60;7.32;;;;;;;;;;5071571;28;20059;-71
2022/10/15 08:45:35;;;;;;;14.25;6.85;;;;;;;;;;5089351;28;20032;-70
2022/10/15 08:48:03;;;;;;;13.93;7.95;;;;;;;;;;5089898;28;20115;-71
2022/10/15 08:50:39;;;;;;;21.30;7.65;;;;;;;;;;5091477;28;20048;-70
2022/10/15 08:53:10;;;;;;;24.05;7.65;;;;;;;;;;5109084;28;20036;-71
2022/10/15 08:55:42;;;;;;;15.48;7.20;;;;;;;;;;5109215;28;20052;-71
2022/10/15 08:58:29;;;;;;;18.10;6.72;;;;;;;;;;5075182;28;20028;-71
2022/10/15 09:00:54;;;;;;;20.95;7.10;;;;;;;;;;5058422;28;20474;-71
2022/10/15 09:03:39;;;;;;;18.20;6.57;;;;;;;;;;5074746;28;20047;-70
2022/10/15 09:06:14;;;;;;;24.85;8.18;;;;;;;;;;5074649;28;20036;-71
2022/10/15 09:08:47;;;;;;;14.38;7.18;;;;;;;;;;5074498;28;20048;-70
2022/10/15 09:11:26;;;;;;;15.13;7.30;;;;;;;;;;5057167;28;20430;-71
2022/10/15 09:13:52;;;;;;;20.15;7.72;;;;;;;;;;5090390;28;20117;-71
2022/10/15 09:16:31;;;;;;;16.08;7.53;;;;;;;;;;5090591;28;20417;-71
2022/10/15 09:18:58;;;;;;;16.80;7.53;;;;;;;;;;5107245;28;20043;-71
2022/10/15 09:21:27;;;;;;;20.42;8.00;;;;;;;;;;5107675;28;20127;-72
2022/10/15 09:23:57;;;;;;;17.60;7.22;;;;;;;;;;5091033;28;20043;-71
2022/10/15 09:26:32;;;;;;;14.15;7.90;;;;;;;;;;5057145;28;20027;-71
2022/10/15 09:29:17;;;;;;;16.17;6.75;;;;;;;;;;5073636;28;20036;-71
2022/10/15 09:31:58;;;;;;;19.98;7.13;;;;;;;;;;5073811;28;20131;-71
2022/10/15 09:34:51;;;;;;;17.35;7.35;;;;;;;;;;5074361;28;20043;-68
2022/10/15 09:37:21;;;;;;;13.73;6.63;;;;;;;;;;5090905;28;20031;-72
2022/10/15 09:40:16;;;;;;;16.40;6.78;;;;;;;;;;5090862;28;20036;-72
2022/10/15 09:42:43;;;;;;;17.23;6.13;;;;;;;;;;5043120;28;20058;-73
2022/10/15 09:45:12;;;;;;;;;;;;;;;;;;5091482;28;20085;-72
2022/10/15 09:47:43;;;;;;;16.80;6.35;;;;;;;;;;5073752;28;19920;-71
2022/10/15 09:50:11;;;;;;;14.52;7.55;;;;;;;;;;5088168;28;20035;-74
2022/10/15 09:52:45;;;;;;;17.38;7.50;;;;;;;;;;5088406;28;20035;-72
2022/10/15 09:55:26;;;;;;;14.38;6.38;;;;;;;;;;5072287;28;20109;-71
2022/10/15 09:57:55;;;;;;;14.85;6.80;;;;;;;;;;5073076;28;20399;-72
2022/10/15 10:00:21;;;;;;;11.20;5.50;;;;;;;;;;5072063;28;20078;-70
2022/10/15 10:03:05;;;;;;;16.77;6.60;;;;;;;;;;5056185;28;20071;-70
2022/10/15 10:05:32;;;;;;;18.98;6.80;;;;;;;;;;5107957;28;20036;-71
2022/10/15 10:08:10;;;;;;;14.50;6.70;;;;;;;;;;5091541;28;20452;-69
2022/10/15 10:10:36;;;;;;;14.43;6.93;;;;;;;;;;5074951;28;20028;-68
2022/10/15 10:13:06;;;;;;;16.58;7.07;;;;;;;;;;5091736;28;20028;-73
2022/10/15 10:15:37;;;;;;;15.98;7.05;;;;;;;;;;5091377;28;20101;-70
2022/10/15 10:18:06;;;;;;;14.27;6.50;;;;;;;;;;5074738;28;20040;-69
2022/10/15 10:20:32;;;;;;;14.25;8.10;;;;;;;;;;5091797;28;20514;-72
2022/10/15 10:22:59;;;;;;;17.88;7.50;;;;;;;;;;5059550;28;20097;-72
2022/10/15 10:25:25;;;;;;;18.70;7.35;;;;;;;;;;5085175;28;20036;-71
2022/10/15 10:27:51;;;;;;;14.90;7.53;;;;;;;;;;5085274;28;20556;-70
2022/10/15 10:30:17;;;;;;;17.25;6.95;;;;;;;;;;5065746;28;20198;-71
2022/10/15 10:32:44;;;;;;;21.27;7.57;;;;;;;;;;5040340;28;20120;-71
2022/10/15 10:35:20;;;;;;;17.90;6.35;;;;;;;;;;5075480;28;20047;-70
2022/10/15 10:37:45;;;;;;;15.07;7.60;;;;;;;;;;5089651;28;20053;-73
2022/10/15 10:40:42;;;;;;;19.73;7.28;;;;;;;;;;5072259;28;20119;-72
2022/10/15 10:43:39;;;;;;;23.45;7.07;;;;;;;;;;5040841;28;20067;-71
2022/10/15 10:46:14;;;;;;;18.30;6.68;;;;;;;;;;5064600;28;20099;-73
2022/10/15 10:48:47;;;;;;;12.52;6.60;;;;;;;;;;5072708;28;20040;-70
2022/10/15 10:51:14;;;;;;;9.75;6.13;;;;;;;;;;5056906;28;20029;-73
2022/10/15 10:53:45;;;;;;;13.90;7.00;;;;;;;;;;5091291;28;20036;-71
2022/10/15 10:56:12;;;;;;;;;;;;;;;;;;5074838;28;20056;-73
2022/10/15 10:58:38;;;;;;;12.00;5.97;;;;;;;;;;5074333;28;19941;-75
2022/10/15 11:01:03;;;;;;;17.00;5.97;;;;;;;;;;5075204;28;20440;-74
2022/10/15 11:03:37;;;;;;;15.77;5.97;;;;;;;;;;5057629;28;20033;-73
2022/10/15 11:06:09;;;;;;;18.50;5.65;;;;;;;;;;5073731;28;20383;-72
2022/10/15 11:08:40;;;;;;;16.98;6.53;;;;;;;;;;5061628;28;20512;-73
2022/10/15 11:11:18;;;;;;;15.35;7.50;;;;;;;;;;5055519;28;20072;-72
2022/10/15 11:13:49;;;;;;;17.65;6.78;;;;;;;;;;5071616;28;20037;-73
2022/10/15 11:16:21;;;;;;;15.90;7.55;;;;;;;;;;5055598;28;20085;-72
2022/10/15 11:18:46;;;;;;;15.40;6.57;;;;;;;;;;5079727;28;20104;-72
2022/10/15 11:21:40;;;;;;;13.48;6.75;;;;;;;;;;5071247;28;20484;-72
2022/10/15 11:24:20;;;;;;;20.85;8.75;;;;;;;;;;5104848;28;20127;-72
2022/10/15 11:27:04;;;;;;;20.65;7.50;;;;;;;;;;5076001;28;20533;-71
2022/10/15 11:29:39;;;;;;;14.68;7.30;;;;;;;;;;5060555;28;20036;-71
2022/10/15 11:32:16;;;;;;;22.02;9.90;;;;;;;;;;5075385;28;20401;-74
2022/10/15 11:35:02;;;;;;;22.48;8.40;;;;;;;;;;5092082;28;20044;-72
2022/10/15 11:37:46;;;;;;;19.20;7.28;;;;;;;;;;5075390;28;20063;-72
2022/10/15 11:40:15;;;;;;;19.70;7.43;;;;;;;;;;5075439;28;20501;-72
2022/10/15 11:42:55;;;;;;;12.80;6.75;;;;;;;;;;5090733;28;20056;-72
2022/10/15 11:45:21;;;;;;;17.35;6.70;;;;;;;;;;5092791;28;20105;-72
2022/10/15 11:47:57;;;;;;;17.77;6.95;;;;;;;;;;5092029;28;20126;-71
2022/10/15 11:50:33;;;;;;;20.20;8.40;;;;;;;;;;5074971;28;20040;-72
2022/10/15 11:52:59;;;;;;;16.90;7.75;;;;;;;;;;5074254;28;20097;-71
2022/10/15 11:55:46;;;;;;;14.55;7.70;;;;;;;;;;5091164;28;20608;-71
2022/10/15 11:58:19;;;;;;;15.38;8.18;;;;;;;;;;5073353;28;20040;-70
2022/10/15 12:00:48;;;;;;;17.55;7.88;;;;;;;;;;5054495;28;20046;-71
2022/10/15 12:03:17;;;;;;;17.20;8.48;;;;;;;;;;5054331;28;20041;-71
2022/10/15 12:05:53;;;;;;;18.13;8.70;;;;;;;;;;5068812;28;20036;-72
2022/10/15 12:08:20;;;;;;;22.52;8.90;;;;;;;;;;5066228;28;20097;-73
2022/10/15 12:10:45;;;;;;;19.63;9.57;;;;;;;;;;5091041;28;20040;-75
2022/10/15 12:13:21;;;;;;;17.23;8.57;;;;;;;;;;5074007;28;20089;-73
2022/10/15 12:16:07;;;;;;;19.02;8.52;;;;;;;;;;5088341;28;20078;-73
2022/10/15 12:18:33;;;;;;;18.98;7.95;;;;;;;;;;5079605;28;20067;-72
2022/10/15 12:20:58;;;;;;;18.17;7.80;;;;;;;;;;5053737;28;20495;-71
2022/10/15 12:23:44;;;;;;;13.05;7.05;;;;;;;;;;5037441;28;20363;-70
2022/10/15 12:26:30;;;;;;;15.60;7.88;;;;;;;;;;5070325;28;20467;-71
2022/10/15 12:28:57;;;;;;;17.23;7.25;;;;;;;;;;5053930;28;20055;-70
2022/10/15 12:31:24;;;;;;;20.67;7.55;;;;;;;;;;5038073;28;20105;-71
2022/10/15 12:33:56;;;;;;;18.15;8.18;;;;;;;;;;5054289;28;20036;-72
2022/10/15 12:36:29;;;;;;;21.20;8.65;;;;;;;;;;5070238;28;20036;-71
2022/10/15 12:39:21;;;;;;;19.30;7.88;;;;;;;;;;5087373;28;20044;-70
2022/10/15 12:41:47;;;;;;;15.77;7.40;;;;;;;;;;5053800;28;20071;-71
2022/10/15 12:44:30;;;;;;;13.52;6.53;;;;;;;;;;5052931;28;20068;-70
2022/10/15 12:46:56;;;;;;;20.92;6.05;;;;;;;;;;5036485;28;20466;-70
2022/10/15 12:49:42;;;;;;;12.07;5.40;;;;;;;;;;5052925;28;20028;-70
2022/10/15 12:52:26;;;;;;;9.88;4.80;;;;;;;;;;5067439;28;20036;-71
2022/10/15 12:55:14;;;;;;;18.08;6.47;;;;;;;;;;5073127;28;20078;-71
2022/10/15 12:57:40;;;;;;;14.13;6.07;;;;;;;;;;5090468;28;20040;-71
2022/10/15 13:00:24;;;;;;;24.58;7.65;;;;;;;;;;5073899;28;20197;-72
2022/10/15 13:02:51;;;;;;;16.67;7.38;;;;;;;;;;5074142;28;20040;-71
2022/10/15 13:05:30;;;;;;;18.17;6.35;;;;;;;;;;5091420;28;20108;-74
2022/10/15 13:07:56;;;;;;;14.70;6.07;;;;;;;;;;5073979;28;20047;-72
2022/10/15 13:10:26;;;;;;;19.80;6.53;;;;;;;;;;5057588;28;20419;-75
2022/10/15 13:12:57;;;;;;;16.17;6.38;;;;;;;;;;5077816;28;20104;-71
2022/10/15 13:15:25;;;;;;;17.45;7.28;;;;;;;;;;5110358;28;20075;-81
2022/10/15 13:17:51;;;;;;;16.70;7.45;;;;;;;;;;5060093;28;20032;-78
2022/10/15 13:20:32;;;;;;;27.35;7.93;;;;;;;;;;5091940;28;20525;-78
2022/10/15 13:23:15;;;;;;;22.75;7.82;;;;;;;;;;5108952;28;20039;-79
2022/10/15 13:25:43;;;;;;;22.10;9.95;;;;;;;;;;5057438;28;20454;-79
2022/10/15 13:28:28;;;;;;;14.18;6.47;;;;;;;;;;5076788;28;20177;-81
2022/10/15 13:30:53;;;;;;;19.13;7.07;;;;;;;;;;5074092;28;20032;-79
2022/10/15 13:33:20;;;;;;;18.23;7.07;;;;;;;;;;5091669;28;20058;-81
2022/10/15 13:35:46;;;;;;;16.15;7.03;;;;;;;;;;5073692;28;20075;-77
2022/10/15 13:38:19;;;;;;;16.45;7.20;;;;;;;;;;5090716;28;20116;-79
2022/10/15 13:40:49;;;;;;;13.13;6.15;;;;;;;;;;5075983;28;20032;-81
2022/10/15 13:43:16;;;;;;;20.38;6.35;;;;;;;;;;5091255;28;20130;-80
2022/10/15 13:45:52;;;;;;;18.70;7.13;;;;;;;;;;5058683;28;20127;-79
2022/10/15 13:48:21;;;;;;;18.52;7.80;;;;;;;;;;5092406;28;20474;-79
2022/10/15 13:50:48;;;;;;;17.25;7.38;;;;;;;;;;5091928;28;20040;-78
2022/10/15 13:53:20;;;;;;;19.60;7.45;;;;;;;;;;5091374;28;20127;-74
2022/10/15 13:55:50;;;;;;;17.58;8.07;;;;;;;;;;5086577;28;20052;-73
2022/10/15 13:58:15;;;;;;;19.25;8.35;;;;;;;;;;5053528;28;20093;-76
2022/10/15 14:00:41;;;;;;;27.70;11.07;;;;;;;;;;5038190;28;20119;-78
2022/10/15 14:03:15;;;;;;;32.65;11.93;;;;;;;;;;5054841;28;20521;-82
2022/10/15 14:05:42;;;;;;;27.45;11.05;;;;;;;;;;5056247;28;20044;-79
2022/10/15 14:08:15;;;;;;;30.30;10.77;;;;;;;;;;5096834;28;20035;-81
2022/10/15 14:10:41;;;;;;;31.73;11.15;;;;;;;;;;5110853;28;20036;-79
2022/10/15 14:13:09;;;;;;;25.40;10.30;;;;;;;;;;5075008;28;20033;-81
2022/10/15 14:15:44;;;;;;;30.48;10.10;;;;;;;;;;5074945;28;20075;-80
2022/10/15 14:18:12;;;;;;;23.83;10.95;;;;;;;;;;5074883;28;20530;-80
2022/10/15 14:20:43;;;;;;;30.05;11.20;;;;;;;;;;5079340;28;20077;-81
2022/10/15 14:23:35;;;;;;;25.38;9.95;;;;;;;;;;5057336;28;20094;-78
2022/10/15 14:26:01;;;;;;;30.60;12.65;;;;;;;;;;5054771;28;20040;-80
2022/10/15 14:28:30;;;;;;;25.42;11.27;;;;;;;;;;5074123;28;20044;-80
2022/10/15 14:30:56;;;;;;;33.72;10.85;;;;;;;;;;5074292;28;20040;-80
2022/10/15 14:33:48;;;;;;;31.63;11.13;;;;;;;;;;5040803;28;20424;-76
2022/10/15 14:36:24;;;;;;;27.08;9.55;;;;;;;;;;5054126;28;20669;-76
2022/10/15 14:38:51;;;;;;;29.20;12.30;;;;;;;;;;5051622;28;20055;-76
2022/10/15 14:41:29;;;;;;;28.45;10.55;;;;;;;;;;5075425;28;20348;-78
2022/10/15 14:43:59;;;;;;;25.13;9.98;;;;;;;;;;5040645;28;20071;-72
2022/10/15 14:46:35;;;;;;;27.98;9.55;;;;;;;;;;5072872;28;20036;-74
2022/10/15 14:49:01;;;;;;;16.48;7.72;;;;;;;;;;5071461;28;20059;-74
2022/10/15 14:51:27;;;;;;;19.55;8.02;;;;;;;;;;5054828;28;20068;-75
2022/10/15 14:53:53;;;;;;;18.80;8.90;;;;;;;;;;5056002;28;20036;-75
2022/10/15 14:56:21;;;;;;;32.05;13.10;;;;;;;;;;5056404;28;20058;-76